Time;durP1;ratioP1;P1;durP2;ratioP2;P2;SDS_P1;SDS_P2;PMS_P1;PMS_P2;Temp;Humidity;BMP_temperature;BMP_pressure;BME280_temperature;BME280_humidity;BME280_pressure;Samples;Min_cycle;Max_cycle;Signal;HPM_P1;HPM_P2
2023/04/20 00:00:35;;;;;;;4.33;3.50;;;4.90;99.90;;;;;;5111475;28;20210;-38
2023/04/20 00:03:02;;;;;;;4.40;3.63;;;4.90;99.90;;;;;;5092948;28;20206;-37
2023/04/20 00:05:29;;;;;;;4.23;3.50;;;4.80;99.90;;;;;;5073094;28;20169;-36
2023/04/20 00:07:55;;;;;;;4.77;3.30;;;4.80;99.90;;;;;;5092808;28;20193;-40
2023/04/20 00:10:20;;;;;;;4.23;3.80;;;4.70;99.90;;;;;;5092414;28;20174;-36
2023/04/20 00:12:46;;;;;;;4.83;3.67;;;4.70;99.90;;;;;;5076011;28;20210;-37
2023/04/20 00:15:12;;;;;;;5.37;3.33;;;4.70;99.90;;;;;;5098419;28;20177;-38
2023/04/20 00:17:38;;;;;;;3.60;3.23;;;4.60;99.90;;;;;;5092417;28;20197;-36
2023/04/20 00:20:05;;;;;;;3.50;3.20;;;4.50;99.90;;;;;;5092692;28;20202;-36
2023/04/20 00:22:30;;;;;;;5.27;3.17;;;4.40;99.90;;;;;;5110994;28;20181;-37
2023/04/20 00:24:57;;;;;;;5.33;3.73;;;4.20;99.90;;;;;;5093249;28;20204;-36
2023/04/20 00:27:22;;;;;;;6.23;4.00;;;4.10;99.90;;;;;;5072502;28;20262;-37
2023/04/20 00:29:48;;;;;;;8.40;4.17;;;4.00;99.90;;;;;;5061622;28;20268;-36
2023/04/20 00:32:14;;;;;;;7.07;4.57;;;3.90;99.90;;;;;;5092598;28;20268;-36
2023/04/20 00:34:40;;;;;;;5.93;4.40;;;3.90;99.90;;;;;;5076223;28;20168;-36
2023/04/20 00:37:06;;;;;;;8.20;4.50;;;3.80;99.90;;;;;;5092456;28;20200;-37
2023/04/20 00:39:31;;;;;;;4.30;3.90;;;3.90;99.90;;;;;;5092889;28;20184;-38
2023/04/20 00:42:08;;;;;;;4.27;3.80;;;4.00;99.90;;;;;;5092461;28;20195;-36
2023/04/20 00:44:34;;;;;;;4.07;3.47;;;4.00;99.90;;;;;;5093020;28;20188;-36
2023/04/20 00:47:00;;;;;;;5.83;4.33;;;4.10;99.90;;;;;;5110050;28;20193;-37
2023/04/20 00:49:28;;;;;;;4.30;3.90;;;4.10;99.90;;;;;;5092739;28;20182;-38
2023/04/20 00:51:59;;;;;;;4.43;4.00;;;4.10;99.90;;;;;;5075998;28;20195;-36
2023/04/20 00:54:29;;;;;;;4.13;3.17;;;4.20;99.90;;;;;;5092914;28;20176;-38
2023/04/20 00:56:56;;;;;;;5.47;4.20;;;4.20;99.90;;;;;;5072170;28;20206;-38
2023/04/20 00:59:22;;;;;;;4.90;3.63;;;4.10;99.90;;;;;;5075812;28;20675;-37
2023/04/20 01:01:48;;;;;;;5.50;4.17;;;4.00;99.90;;;;;;5091535;28;20203;-37
2023/04/20 01:04:15;;;;;;;4.20;3.80;;;4.00;99.90;;;;;;5092368;28;20168;-39
2023/04/20 01:06:41;;;;;;;4.90;4.30;;;4.00;99.90;;;;;;5090833;28;20200;-36
2023/04/20 01:09:08;;;;;;;5.10;4.20;;;4.00;99.90;;;;;;5083053;28;20184;-37
2023/04/20 01:11:35;;;;;;;4.20;3.73;;;4.00;99.90;;;;;;5092364;28;20267;-37
2023/04/20 01:14:01;;;;;;;5.43;3.87;;;3.80;99.90;;;;;;5075912;28;20329;-36
2023/04/20 01:16:27;;;;;;;5.07;4.13;;;3.70;99.90;;;;;;5091913;28;20235;-38
2023/04/20 01:18:53;;;;;;;4.87;4.17;;;3.70;99.90;;;;;;5075244;28;20203;-38
2023/04/20 01:21:22;;;;;;;5.50;4.00;;;3.70;99.90;;;;;;5075425;28;20238;-37
2023/04/20 01:23:49;;;;;;;5.50;4.33;;;3.70;99.90;;;;;;5075664;28;20179;-38
2023/04/20 01:26:17;;;;;;;8.90;6.20;;;3.60;99.90;;;;;;5089067;28;20193;-39
2023/04/20 01:28:43;;;;;;;12.40;7.23;;;3.60;99.90;;;;;;5088030;28;20176;-39
2023/04/20 01:31:10;;;;;;;7.90;5.60;;;3.60;99.90;;;;;;5092322;28;20253;-37
2023/04/20 01:33:36;;;;;;;5.77;4.53;;;3.60;99.90;;;;;;5095710;28;20179;-38
2023/04/20 01:36:03;;;;;;;8.13;4.90;;;3.50;99.90;;;;;;5078667;28;20191;-38
2023/04/20 01:38:33;;;;;;;6.77;4.83;;;3.50;99.90;;;;;;5095769;28;20195;-38
2023/04/20 01:41:06;;;;;;;7.40;4.97;;;3.40;99.90;;;;;;5096522;28;20199;-36
2023/04/20 01:43:33;;;;;;;5.53;4.30;;;3.40;99.90;;;;;;5095374;28;20180;-36
2023/04/20 01:45:59;;;;;;;5.30;4.37;;;3.40;99.90;;;;;;5095946;28;20225;-38
2023/04/20 01:49:17;;;;;;;6.20;4.33;;;3.40;99.90;;;;;;5095022;28;20680;-37
2023/04/20 01:51:42;;;;;;;5.57;4.23;;;3.40;99.90;;;;;;5095747;28;20233;-38
2023/04/20 01:54:08;;;;;;;4.87;4.30;;;3.40;99.90;;;;;;5078811;28;20195;-37
2023/04/20 01:56:34;;;;;;;6.37;4.37;;;3.30;99.90;;;;;;5095832;28;20344;-37
2023/04/20 01:59:00;;;;;;;5.00;3.93;;;3.30;99.90;;;;;;5113467;28;20183;-36
2023/04/20 02:01:26;;;;;;;5.30;3.93;;;3.20;99.90;;;;;;5095791;28;20199;-36
2023/04/20 02:03:52;;;;;;;6.83;4.43;;;3.20;99.90;;;;;;5095601;28;20262;-38
2023/04/20 02:06:20;;;;;;;6.03;4.43;;;3.20;99.90;;;;;;5078713;28;20249;-36
2023/04/20 02:08:45;;;;;;;4.73;3.87;;;3.20;99.90;;;;;;5113778;28;20204;-37
2023/04/20 02:11:11;;;;;;;5.60;3.90;;;3.20;99.90;;;;;;5075513;28;20185;-38
2023/04/20 02:13:37;;;;;;;5.37;3.60;;;3.20;99.90;;;;;;5075300;28;20184;-36
2023/04/20 02:16:03;;;;;;;5.80;4.10;;;3.10;99.90;;;;;;5078709;28;20233;-38
2023/04/20 02:18:31;;;;;;;6.13;3.90;;;3.10;99.90;;;;;;5078450;28;20180;-36
2023/04/20 02:20:59;;;;;;;4.73;4.13;;;3.10;99.90;;;;;;5095189;28;20326;-38
2023/04/20 02:23:25;;;;;;;7.13;4.83;;;3.00;99.90;;;;;;5078485;28;20179;-38
2023/04/20 02:25:51;;;;;;;5.33;4.13;;;3.00;99.90;;;;;;5077552;28;20217;-40
2023/04/20 02:28:17;;;;;;;4.83;3.90;;;2.90;99.90;;;;;;5078078;28;20180;-36
2023/04/20 02:30:42;;;;;;;5.63;4.20;;;2.90;99.90;;;;;;5078187;28;20180;-37
2023/04/20 02:33:10;;;;;;;7.40;4.10;;;2.90;99.90;;;;;;5094815;28;20180;-39
2023/04/20 02:35:36;;;;;;;6.93;4.63;;;2.80;99.90;;;;;;5077530;28;20183;-36
2023/04/20 02:38:02;;;;;;;5.63;4.40;;;2.80;99.90;;;;;;5079362;28;20221;-38
2023/04/20 02:40:28;;;;;;;7.07;5.20;;;2.80;99.90;;;;;;5078083;28;20231;-36
2023/04/20 02:42:54;;;;;;;6.27;5.40;;;2.80;99.90;;;;;;5093833;28;20636;-36
2023/04/20 02:45:20;;;;;;;8.13;6.63;;;2.70;99.90;;;;;;5093472;28;20176;-38
2023/04/20 02:47:46;;;;;;;6.43;4.40;;;2.60;99.90;;;;;;5094232;28;20191;-36
2023/04/20 02:50:13;;;;;;;5.57;4.80;;;2.50;99.90;;;;;;5077893;28;20175;-37
2023/04/20 02:53:02;;;;;;;5.20;4.40;;;2.40;99.90;;;;;;5094952;28;20520;-38
2023/04/20 02:55:31;;;;;;;5.30;4.80;;;2.40;99.90;;;;;;5077714;28;20180;-36
2023/04/20 02:58:02;;;;;;;5.20;4.30;;;2.40;99.90;;;;;;5093896;28;20199;-37
2023/04/20 03:00:48;;;;;;;6.17;4.30;;;2.50;99.90;;;;;;5112583;28;20218;-37
2023/04/20 03:03:14;;;;;;;6.90;4.80;;;2.60;99.90;;;;;;5112836;28;20177;-36
2023/04/20 03:05:40;;;;;;;6.63;4.30;;;2.60;99.90;;;;;;5077589;28;20267;-37
2023/04/20 03:08:06;;;;;;;5.83;4.77;;;2.50;99.90;;;;;;5094039;28;20176;-36
2023/04/20 03:10:32;;;;;;;5.37;4.40;;;2.60;99.90;;;;;;5112647;28;20183;-36
2023/04/20 03:13:10;;;;;;;5.13;4.33;;;2.60;99.90;;;;;;5079123;28;20179;-37
2023/04/20 03:15:54;;;;;;;6.97;4.60;;;2.70;99.90;;;;;;5087550;28;20591;-37
2023/04/20 03:18:33;;;;;;;6.00;4.43;;;2.70;99.90;;;;;;5109516;28;20233;-36
2023/04/20 03:20:59;;;;;;;7.67;5.07;;;2.70;99.90;;;;;;5094146;28;20227;-36
2023/04/20 03:23:28;;;;;;;6.63;4.03;;;2.70;99.90;;;;;;5072887;28;20184;-38
2023/04/20 03:25:54;;;;;;;7.13;4.33;;;2.70;99.90;;;;;;5072176;28;20206;-37
2023/04/20 03:28:51;;;;;;;7.87;4.40;;;2.80;99.90;;;;;;5080698;28;20196;-37
2023/04/20 03:31:21;;;;;;;5.13;4.63;;;2.80;99.90;;;;;;5078742;28;20267;-37
2023/04/20 03:33:48;;;;;;;6.30;4.50;;;2.80;99.90;;;;;;5093646;28;20180;-39
2023/04/20 03:36:14;;;;;;;7.30;4.27;;;2.80;99.90;;;;;;5076770;28;20229;-38
2023/04/20 03:38:41;;;;;;;9.53;5.87;;;2.80;99.90;;;;;;5080160;22;20226;-87
2023/04/20 03:41:07;;;;;;;5.20;4.67;;;2.80;99.90;;;;;;5078281;28;20207;-87
2023/04/20 03:43:34;;;;;;;8.47;5.93;;;2.80;99.90;;;;;;5114091;27;20228;-87
2023/04/20 03:45:59;;;;;;;6.13;5.33;;;2.70;99.90;;;;;;5097393;28;20176;-88
2023/04/20 03:48:26;;;;;;;5.40;4.63;;;2.70;99.90;;;;;;5111489;28;20214;-87
2023/04/20 03:50:52;;;;;;;5.40;4.40;;;2.60;99.90;;;;;;5078013;28;20180;-87
2023/04/20 03:53:18;;;;;;;5.53;3.87;;;2.50;99.90;;;;;;5078082;28;20186;-87
2023/04/20 03:55:44;;;;;;;4.70;4.17;;;2.20;99.90;;;;;;5072738;28;20180;-87
2023/04/20 03:58:14;;;;;;;4.83;4.10;;;2.00;99.90;;;;;;5060347;28;20200;-87
2023/04/20 04:00:50;;;;;;;6.20;4.83;;;2.00;99.90;;;;;;5089779;28;20196;-87
2023/04/20 04:03:16;;;;;;;5.60;4.53;;;1.90;99.90;;;;;;5074581;28;20176;-87
2023/04/20 04:05:42;;;;;;;7.10;4.90;;;2.00;99.90;;;;;;5092550;28;20177;-87
2023/04/20 04:08:08;;;;;;;7.07;5.50;;;2.10;99.90;;;;;;5090996;28;20196;-88
2023/04/20 04:10:34;;;;;;;6.43;5.33;;;2.20;99.90;;;;;;5076095;27;20183;-88
2023/04/20 04:13:04;;;;;;;6.90;4.97;;;2.30;99.90;;;;;;5098121;27;20195;-87
2023/04/20 04:15:35;;;;;;;7.17;5.20;;;2.30;99.90;;;;;;5098006;27;20197;-86
2023/04/20 04:18:07;;;;;;;6.93;5.27;;;2.40;99.90;;;;;;5111214;27;20294;-86
2023/04/20 04:20:36;;;;;;;5.60;5.00;;;2.50;99.90;;;;;;5094216;28;20216;-86
2023/04/20 04:23:03;;;;;;;6.43;4.77;;;2.50;99.90;;;;;;5060873;28;20176;-86
2023/04/20 04:25:41;;;;;;;6.90;5.20;;;2.50;99.90;;;;;;5074913;28;20164;-86
2023/04/20 04:28:09;;;;;;;6.50;4.93;;;2.50;99.90;;;;;;5061620;28;20201;-86
2023/04/20 04:30:41;;;;;;;7.47;5.40;;;2.50;99.90;;;;;;5094916;28;20190;-86
2023/04/20 04:33:09;;;;;;;7.00;5.07;;;2.50;99.90;;;;;;5098187;28;20195;-86
2023/04/20 04:35:40;;;;;;;9.37;5.03;;;2.50;99.90;;;;;;5098214;28;20175;-86
2023/04/20 04:38:06;;;;;;;5.77;4.70;;;2.50;99.90;;;;;;5097844;28;20207;-86
2023/04/20 04:40:34;;;;;;;11.67;5.30;;;2.50;99.90;;;;;;5098082;28;20199;-86
2023/04/20 04:43:02;;;;;;;6.83;4.93;;;2.60;99.90;;;;;;5098381;28;20167;-87
2023/04/20 04:45:29;;;;;;;8.00;5.20;;;2.60;99.90;;;;;;5098243;28;20540;-87
2023/04/20 04:47:55;;;;;;;5.00;4.50;;;2.60;99.90;;;;;;5097415;28;20191;-86
2023/04/20 04:50:22;;;;;;;4.63;4.23;;;2.60;99.90;;;;;;5098173;28;20638;-86
2023/04/20 04:52:48;;;;;;;6.73;5.17;;;2.50;99.90;;;;;;5114485;28;20183;-86
2023/04/20 04:55:14;;;;;;;6.37;5.00;;;2.50;99.90;;;;;;5097358;28;20203;-86
2023/04/20 04:57:40;;;;;;;8.10;5.53;;;2.50;99.90;;;;;;5076601;28;20199;-86
2023/04/20 05:00:08;;;;;;;7.07;5.40;;;2.60;99.90;;;;;;5077128;28;20268;-87
2023/04/20 05:02:34;;;;;;;7.43;5.30;;;2.60;99.90;;;;;;5077333;28;20176;-87
2023/04/20 05:05:00;;;;;;;6.50;5.07;;;2.70;99.90;;;;;;5077053;28;20180;-87
2023/04/20 05:07:26;;;;;;;7.70;5.30;;;2.90;99.90;;;;;;5095199;28;20222;-86
2023/04/20 05:09:52;;;;;;;9.50;5.90;;;2.90;99.90;;;;;;5081083;28;20199;-86
2023/04/20 05:12:18;;;;;;;7.23;5.70;;;3.00;99.90;;;;;;5112064;28;20204;-87
2023/04/20 05:14:45;;;;;;;6.77;5.40;;;3.00;99.90;;;;;;5095235;27;20183;-87
2023/04/20 05:17:11;;;;;;;11.37;6.67;;;3.10;99.90;;;;;;5080585;28;20208;-87
2023/04/20 05:19:37;;;;;;;8.80;6.30;;;3.10;99.90;;;;;;5090919;28;20176;-87
2023/04/20 05:22:03;;;;;;;9.50;6.77;;;3.20;99.90;;;;;;5071464;28;20200;-87
2023/04/20 05:24:29;;;;;;;6.43;5.43;;;3.20;99.90;;;;;;5074588;28;20183;-86
2023/04/20 05:26:55;;;;;;;6.93;5.77;;;3.30;99.90;;;;;;5088447;28;20196;-88
2023/04/20 05:29:21;;;;;;;7.60;5.80;;;3.30;99.90;;;;;;5113281;28;20172;-88
2023/04/20 05:31:47;;;;;;;7.80;6.07;;;3.30;99.90;;;;;;5094572;28;20176;-88
2023/04/20 05:34:12;;;;;;;8.27;6.07;;;3.30;99.90;;;;;;5094659;28;20516;-88
2023/04/20 05:36:39;;;;;;;8.03;6.13;;;3.30;99.90;;;;;;5077564;28;20207;-88
2023/04/20 05:39:05;;;;;;;6.80;5.97;;;3.30;99.90;;;;;;5085067;28;20191;-88
2023/04/20 05:41:31;;;;;;;10.97;7.30;;;3.30;99.90;;;;;;5094360;28;20208;-88
2023/04/20 05:43:57;;;;;;;12.87;6.23;;;3.30;99.90;;;;;;5085419;27;20180;-88
2023/04/20 05:46:23;;;;;;;8.77;6.80;;;3.40;99.90;;;;;;5101150;27;20179;-86
2023/04/20 05:48:49;;;;;;;8.43;7.10;;;3.40;99.90;;;;;;5079815;28;20172;-88
2023/04/20 05:51:15;;;;;;;11.63;7.30;;;3.40;99.90;;;;;;5060625;28;20241;-88
2023/04/20 05:53:40;;;;;;;9.27;6.43;;;3.40;99.90;;;;;;5060872;27;20253;-88
2023/04/20 05:56:07;;;;;;;9.77;6.53;;;3.40;99.90;;;;;;5074091;28;20247;-88
2023/04/20 05:58:34;;;;;;;8.50;6.43;;;3.40;99.90;;;;;;5080753;28;20200;-88
2023/04/20 06:01:02;;;;;;;10.17;6.50;;;3.40;99.90;;;;;;5080725;28;20249;-89
2023/04/20 06:03:30;;;;;;;7.43;6.07;;;3.40;99.90;;;;;;5097574;28;20171;-88
2023/04/20 06:05:56;;;;;;;7.90;6.13;;;3.50;99.90;;;;;;5097220;28;20715;-88
2023/04/20 06:08:22;;;;;;;8.23;6.97;;;3.50;99.90;;;;;;5097358;28;20288;-88
2023/04/20 06:10:52;;;;;;;8.37;6.73;;;3.50;99.90;;;;;;5081671;28;20176;-88
2023/04/20 06:13:18;;;;;;;7.53;6.53;;;3.60;99.90;;;;;;5099754;28;20179;-89
2023/04/20 06:15:44;;;;;;;6.83;6.13;;;3.70;99.90;;;;;;5099180;28;20176;-89
2023/04/20 06:18:10;;;;;;;7.37;6.33;;;3.70;99.90;;;;;;5080467;28;20203;-89
2023/04/20 06:20:38;;;;;;;8.43;7.17;;;3.80;99.90;;;;;;5098227;28;20211;-88
2023/04/20 06:23:04;;;;;;;11.27;8.03;;;3.90;99.90;;;;;;5098995;28;20168;-88
2023/04/20 06:25:30;;;;;;;9.50;7.83;;;4.00;99.90;;;;;;5082933;28;20237;-89
2023/04/20 06:27:56;;;;;;;8.20;6.80;;;4.10;99.90;;;;;;5078408;28;20205;-89
2023/04/20 06:30:22;;;;;;;8.10;7.07;;;4.00;99.90;;;;;;5092354;28;20263;-89
2023/04/20 06:32:48;;;;;;;8.47;7.67;;;4.10;99.90;;;;;;5092700;28;20180;-84
2023/04/20 06:35:15;;;;;;;10.00;6.77;;;4.30;99.90;;;;;;5098809;28;20172;-91
2023/04/20 06:37:41;;;;;;;7.40;6.63;;;4.50;99.90;;;;;;5079043;28;20204;-91
2023/04/20 06:40:08;;;;;;;9.00;6.33;;;4.60;99.90;;;;;;5095007;28;20179;-89
2023/04/20 06:42:35;;;;;;;8.73;6.67;;;4.70;99.90;;;;;;5076311;28;20262;-89
2023/04/20 06:45:01;;;;;;;6.43;5.67;;;4.70;99.90;;;;;;5093162;28;20175;-89
2023/04/20 06:47:32;;;;;;;8.30;6.43;;;4.80;99.90;;;;;;5096339;28;20198;-89
2023/04/20 06:50:00;;;;;;;8.87;6.53;;;4.80;99.90;;;;;;5096761;28;20180;-89
2023/04/20 06:52:27;;;;;;;9.43;6.93;;;4.80;99.90;;;;;;5096832;28;20186;-89
2023/04/20 06:54:54;;;;;;;9.10;6.67;;;4.80;99.90;;;;;;5092313;28;20246;-89
2023/04/20 06:57:20;;;;;;;7.33;6.33;;;4.80;99.90;;;;;;5098209;28;20196;-89
2023/04/20 06:59:47;;;;;;;7.53;6.30;;;4.80;99.90;;;;;;5095975;28;20180;-89
2023/04/20 07:02:13;;;;;;;9.87;6.60;;;4.70;99.90;;;;;;5096355;28;20207;-88
2023/04/20 07:04:40;;;;;;;12.43;7.63;;;4.80;99.90;;;;;;5071951;28;20181;-89
2023/04/20 07:07:06;;;;;;;10.90;6.63;;;4.90;99.90;;;;;;5091074;28;20200;-89
2023/04/20 07:09:33;;;;;;;8.20;6.30;;;4.90;99.90;;;;;;5077636;28;20175;-89
2023/04/20 07:11:59;;;;;;;12.40;7.97;;;4.90;99.90;;;;;;5075585;28;20185;-89
2023/04/20 07:14:25;;;;;;;10.90;7.23;;;5.00;99.90;;;;;;5063170;28;20177;-90
2023/04/20 07:16:52;;;;;;;9.23;6.90;;;5.00;99.90;;;;;;5111778;28;20207;-89
2023/04/20 07:19:18;;;;;;;9.73;7.40;;;5.00;99.90;;;;;;5076430;28;20249;-89
2023/04/20 07:21:44;;;;;;;9.53;7.13;;;5.00;99.90;;;;;;5078204;28;20284;-88
2023/04/20 07:24:10;;;;;;;8.97;6.40;;;5.00;99.90;;;;;;5079972;28;20251;-88
2023/04/20 07:26:36;;;;;;;8.37;6.53;;;5.00;99.90;;;;;;5095799;28;20286;-88
2023/04/20 07:29:02;;;;;;;8.57;6.90;;;5.00;99.90;;;;;;5078467;28;20177;-88
2023/04/20 07:31:28;;;;;;;8.57;7.67;;;5.00;99.90;;;;;;5095100;28;20194;-88
2023/04/20 07:33:54;;;;;;;8.23;6.70;;;4.90;99.90;;;;;;5075819;28;20169;-88
2023/04/20 07:36:21;;;;;;;7.40;6.47;;;4.90;99.90;;;;;;5081930;28;20210;-89
2023/04/20 07:38:48;;;;;;;8.70;7.33;;;4.90;99.90;;;;;;5078500;28;20244;-89
2023/04/20 07:41:14;;;;;;;9.30;7.37;;;5.00;99.90;;;;;;5078872;28;20208;-88
2023/04/20 07:43:40;;;;;;;8.03;6.40;;;4.90;99.90;;;;;;5075363;28;20177;-88
2023/04/20 07:46:07;;;;;;;10.60;7.00;;;4.90;99.90;;;;;;5093068;28;20312;-88
2023/04/20 07:48:33;;;;;;;9.37;7.07;;;4.90;99.90;;;;;;5060149;28;20228;-89
2023/04/20 07:51:00;;;;;;;9.23;6.80;;;5.00;99.90;;;;;;5095785;28;20176;-88
2023/04/20 07:53:28;;;;;;;11.53;8.07;;;4.90;99.90;;;;;;5094485;28;20205;-88
2023/04/20 07:55:54;;;;;;;13.00;9.77;;;4.90;99.90;;;;;;5073682;28;20176;-88
2023/04/20 07:58:20;;;;;;;12.67;8.83;;;4.90;99.90;;;;;;5094816;28;20203;-89
2023/04/20 08:00:47;;;;;;;10.17;8.13;;;4.90;99.90;;;;;;5096254;28;20211;-89
2023/04/20 08:03:14;;;;;;;9.40;7.30;;;4.90;99.90;;;;;;5103150;28;20620;-88
2023/04/20 08:05:40;;;;;;;8.97;6.67;;;5.00;99.90;;;;;;5078478;28;20180;-88
2023/04/20 08:08:06;;;;;;;10.47;8.30;;;5.00;99.90;;;;;;5078126;28;20200;-88
2023/04/20 08:10:32;;;;;;;10.60;7.90;;;5.10;99.90;;;;;;5095207;28;20509;-89
2023/04/20 08:12:58;;;;;;;8.83;7.33;;;5.10;99.90;;;;;;5113529;28;20179;-89
2023/04/20 08:15:24;;;;;;;12.53;8.30;;;5.20;99.90;;;;;;5078040;28;20201;-89
2023/04/20 08:17:51;;;;;;;10.33;7.27;;;5.20;99.90;;;;;;5077725;28;20197;-89
2023/04/20 08:20:18;;;;;;;9.63;7.67;;;5.20;99.90;;;;;;5084481;28;20293;-89
2023/04/20 08:22:44;;;;;;;9.17;7.40;;;5.20;99.90;;;;;;5092891;28;20173;-89
2023/04/20 08:25:10;;;;;;;8.70;7.73;;;5.20;99.90;;;;;;5077853;28;20181;-89
2023/04/20 08:27:36;;;;;;;8.93;7.40;;;5.20;99.90;;;;;;5075008;28;20194;-88
2023/04/20 08:30:03;;;;;;;9.60;7.50;;;5.20;99.90;;;;;;5094638;28;20535;-88
2023/04/20 08:32:29;;;;;;;9.40;7.40;;;5.20;99.90;;;;;;5077707;28;20181;-88
2023/04/20 08:34:55;;;;;;;10.77;8.33;;;5.20;99.90;;;;;;5095063;28;20178;-88
2023/04/20 08:37:22;;;;;;;12.13;7.80;;;5.20;99.90;;;;;;5092633;28;20248;-89
2023/04/20 08:39:48;;;;;;;10.33;7.47;;;5.10;99.90;;;;;;5071407;28;20184;-88
2023/04/20 08:42:15;;;;;;;10.13;8.03;;;5.10;99.90;;;;;;5113900;28;20209;-88
2023/04/20 08:44:42;;;;;;;11.53;7.97;;;5.10;99.90;;;;;;5095795;28;20181;-89
2023/04/20 08:47:11;;;;;;;10.57;7.67;;;5.10;99.90;;;;;;5116917;28;20216;-89
2023/04/20 08:49:38;;;;;;;11.27;7.80;;;5.10;99.90;;;;;;5116666;28;20542;-89
2023/04/20 08:52:06;;;;;;;10.77;8.23;;;5.10;99.90;;;;;;5078388;28;20181;-88
2023/04/20 08:54:31;;;;;;;9.30;8.30;;;5.10;99.90;;;;;;5095397;28;20189;-89
2023/04/20 08:56:58;;;;;;;9.03;7.87;;;5.10;99.90;;;;;;5098325;28;20218;-88
2023/04/20 08:59:24;;;;;;;11.63;8.37;;;5.20;99.90;;;;;;5098433;28;20182;-89
2023/04/20 09:01:50;;;;;;;12.13;7.87;;;5.40;99.90;;;;;;5098615;28;20200;-89
2023/04/20 09:04:16;;;;;;;14.77;9.27;;;5.50;99.90;;;;;;5116804;28;20186;-89
2023/04/20 09:06:44;;;;;;;10.47;8.60;;;5.60;99.90;;;;;;5098330;28;20196;-89
2023/04/20 09:09:10;;;;;;;12.93;8.90;;;5.70;99.90;;;;;;5116219;28;20170;-89
2023/04/20 09:11:36;;;;;;;11.17;8.93;;;5.70;99.90;;;;;;5098624;28;20178;-89
2023/04/20 09:14:11;;;;;;;13.30;9.00;;;5.80;99.90;;;;;;5081413;28;20182;-88
2023/04/20 09:16:47;;;;;;;10.17;8.53;;;5.90;99.90;;;;;;5097966;28;20193;-89
2023/04/20 09:19:13;;;;;;;12.37;8.87;;;6.00;99.90;;;;;;5093579;28;20198;-90
2023/04/20 09:21:48;;;;;;;10.23;8.23;;;6.20;99.90;;;;;;5081276;28;20207;-89
2023/04/20 09:24:15;;;;;;;13.40;8.30;;;6.30;99.90;;;;;;5156196;22;20280;-30
2023/04/20 09:26:41;;;;;;;11.47;8.20;;;6.40;99.90;;;;;;5090311;28;20202;-30
2023/04/20 09:29:20;;;;;;;11.23;8.43;;;6.40;99.90;;;;;;5073972;28;20171;-29
2023/04/20 09:31:47;;;;;;;11.60;8.60;;;6.40;99.90;;;;;;5091972;28;20193;-30
2023/04/20 09:34:13;;;;;;;10.33;8.40;;;6.50;99.90;;;;;;5065381;28;20200;-30
2023/04/20 09:36:50;;;;;;;12.17;8.93;;;6.60;99.90;;;;;;5083812;28;20218;-30
2023/04/20 09:39:19;;;;;;;9.50;8.10;;;6.70;99.90;;;;;;5084899;28;20175;-30
2023/04/20 09:41:45;;;;;;;10.00;7.87;;;6.80;99.90;;;;;;5064404;28;20200;-31
2023/04/20 09:44:12;;;;;;;10.63;8.13;;;6.90;99.90;;;;;;5049090;28;20231;-30
2023/04/20 09:46:40;;;;;;;11.30;8.40;;;6.90;99.90;;;;;;5064887;28;20267;-30
2023/04/20 09:49:11;;;;;;;10.90;8.27;;;7.00;99.90;;;;;;5065014;28;20181;-29
2023/04/20 09:51:40;;;;;;;10.50;8.70;;;7.00;99.90;;;;;;5064628;28;20187;-29
2023/04/20 09:54:06;;;;;;;11.87;8.47;;;6.90;99.90;;;;;;5064602;28;20242;-30
2023/04/20 09:56:34;;;;;;;11.67;8.23;;;6.90;99.90;;;;;;5085053;28;20214;-30
2023/04/20 09:59:02;;;;;;;11.17;8.43;;;6.90;99.90;;;;;;5065402;28;20189;-30
2023/04/20 10:01:33;;;;;;;10.17;8.03;;;7.00;99.90;;;;;;5082399;28;20328;-30
2023/04/20 10:04:00;;;;;;;9.90;8.00;;;7.10;99.90;;;;;;5065419;28;20208;-30
2023/04/20 10:06:31;;;;;;;9.60;7.87;;;7.10;99.90;;;;;;5065533;28;20185;-30
2023/04/20 10:09:00;;;;;;;11.33;8.40;;;7.20;99.90;;;;;;5064445;28;20168;-31
2023/04/20 10:11:43;;;;;;;8.40;7.50;;;7.20;99.90;;;;;;5065291;28;20181;-30
2023/04/20 10:14:23;;;;;;;9.07;7.63;;;7.30;99.90;;;;;;5064941;28;20204;-30
2023/04/20 10:17:07;;;;;;;9.37;7.43;;;7.60;99.90;;;;;;5083465;28;20253;-30
2023/04/20 10:19:37;;;;;;;12.37;8.10;;;7.70;99.90;;;;;;5082517;28;20270;-31
2023/04/20 10:22:03;;;;;;;9.53;7.87;;;7.90;99.90;;;;;;5064031;28;20265;-30
2023/04/20 10:24:29;;;;;;;9.27;7.50;;;8.00;99.90;;;;;;5064437;28;20201;-31
2023/04/20 10:26:55;;;;;;;9.03;7.50;;;8.10;99.90;;;;;;5066268;28;20334;-30
2023/04/20 10:29:25;;;;;;;10.67;7.87;;;8.30;99.90;;;;;;5064224;28;20180;-29
2023/04/20 10:31:52;;;;;;;8.97;7.57;;;8.40;99.90;;;;;;5082128;28;20177;-30
2023/04/20 10:34:30;;;;;;;8.90;7.30;;;8.50;99.90;;;;;;5082945;28;20201;-32
2023/04/20 10:37:07;;;;;;;9.90;7.20;;;8.60;99.90;;;;;;5064056;28;20180;-31
2023/04/20 10:39:33;;;;;;;8.30;7.03;;;8.70;99.90;;;;;;5081940;28;20187;-30
2023/04/20 10:42:02;;;;;;;10.37;7.40;;;8.70;99.90;;;;;;5082029;28;20208;-30
2023/04/20 10:44:28;;;;;;;9.70;7.60;;;8.70;99.90;;;;;;5048116;28;20657;-31
2023/04/20 10:46:54;;;;;;;8.97;7.60;;;8.90;99.90;;;;;;5063599;28;20196;-30
2023/04/20 10:49:25;;;;;;;8.30;7.40;;;8.90;99.90;;;;;;5062981;28;20307;-30
2023/04/20 10:51:52;;;;;;;7.97;7.07;;;8.90;99.90;;;;;;5080732;28;20524;-30
2023/04/20 10:54:18;;;;;;;10.27;7.43;;;8.80;99.90;;;;;;5050077;28;20716;-30
2023/04/20 10:56:44;;;;;;;8.20;7.40;;;8.80;99.90;;;;;;5049200;28;20177;-31
2023/04/20 10:59:15;;;;;;;8.27;7.00;;;8.60;99.90;;;;;;5055189;28;20193;-30
2023/04/20 11:01:43;;;;;;;7.23;6.53;;;8.60;99.90;;;;;;5064264;28;20207;-31
2023/04/20 11:04:10;;;;;;;8.03;6.50;;;8.50;99.90;;;;;;5067527;28;20196;-31
2023/04/20 11:06:43;;;;;;;8.33;7.37;;;8.40;99.90;;;;;;5067440;28;20243;-31
2023/04/20 11:09:27;;;;;;;8.27;6.77;;;8.40;99.90;;;;;;5065824;28;20185;-30
2023/04/20 11:12:04;;;;;;;8.23;7.37;;;8.40;99.90;;;;;;5083901;28;20212;-30
2023/04/20 11:14:32;;;;;;;8.03;6.83;;;8.40;99.90;;;;;;5065588;28;20275;-30
2023/04/20 11:16:58;;;;;;;9.13;6.80;;;8.40;99.90;;;;;;5065593;28;20172;-30
2023/04/20 11:19:25;;;;;;;6.77;6.03;;;8.40;99.90;;;;;;5065677;28;20188;-30
2023/04/20 11:21:51;;;;;;;6.40;5.80;;;8.20;99.90;;;;;;5064456;28;20204;-30
2023/04/20 11:24:24;;;;;;;7.20;6.00;;;7.90;99.90;;;;;;5085271;28;20208;-31
2023/04/20 11:26:53;;;;;;;8.43;7.03;;;7.80;99.90;;;;;;5066488;28;20184;-30
2023/04/20 11:29:29;;;;;;;7.83;6.43;;;7.70;99.90;;;;;;5069199;28;20238;-30
2023/04/20 11:31:56;;;;;;;8.27;6.30;;;7.60;99.90;;;;;;5090416;28;20218;-30
2023/04/20 11:34:22;;;;;;;8.37;6.63;;;7.40;99.90;;;;;;5073389;28;20204;-30
2023/04/20 11:36:51;;;;;;;7.33;6.30;;;7.30;99.90;;;;;;5090749;28;20183;-31
2023/04/20 11:39:25;;;;;;;7.37;6.60;;;7.30;99.90;;;;;;5060382;28;20238;-31
2023/04/20 11:41:52;;;;;;;8.90;7.03;;;7.40;99.90;;;;;;5071496;28;20205;-30
2023/04/20 11:44:22;;;;;;;7.33;6.30;;;7.30;99.90;;;;;;5084974;28;20192;-31
2023/04/20 11:46:49;;;;;;;6.13;5.53;;;7.20;99.90;;;;;;5073636;28;20198;-31
2023/04/20 11:49:21;;;;;;;6.67;5.70;;;7.20;99.90;;;;;;5072843;28;20177;-30
2023/04/20 11:51:47;;;;;;;6.47;5.70;;;7.30;99.90;;;;;;5091676;28;20177;-30
2023/04/20 11:54:14;;;;;;;6.87;6.17;;;7.30;99.90;;;;;;5088033;28;20220;-31
2023/04/20 11:56:43;;;;;;;6.20;5.43;;;7.30;99.90;;;;;;5091720;28;20185;-30
2023/04/20 11:59:10;;;;;;;8.27;5.93;;;7.30;99.90;;;;;;5091031;28;20275;-30
2023/04/20 12:01:36;;;;;;;6.83;5.60;;;7.20;99.90;;;;;;5091615;28;20204;-31
2023/04/20 12:04:05;;;;;;;6.43;5.47;;;7.30;99.90;;;;;;5091128;28;20215;-30
2023/04/20 12:06:31;;;;;;;5.90;5.30;;;7.30;99.90;;;;;;5073053;28;20181;-31
2023/04/20 12:08:57;;;;;;;5.80;5.03;;;7.20;99.90;;;;;;5090460;28;20183;-30
2023/04/20 12:11:23;;;;;;;6.10;5.50;;;7.20;99.90;;;;;;5071923;28;20192;-30
2023/04/20 12:13:49;;;;;;;6.10;5.50;;;7.20;99.90;;;;;;5088441;28;20225;-31
2023/04/20 12:16:15;;;;;;;6.17;4.90;;;7.10;99.90;;;;;;5073160;28;20186;-32
2023/04/20 12:18:41;;;;;;;5.70;5.10;;;7.20;99.90;;;;;;5072461;28;20275;-31
2023/04/20 12:21:07;;;;;;;5.50;4.83;;;7.30;99.90;;;;;;5090776;28;20201;-30
2023/04/20 12:23:35;;;;;;;6.10;5.50;;;7.30;99.90;;;;;;5072924;28;20208;-30
2023/04/20 12:26:05;;;;;;;6.37;5.50;;;7.40;99.90;;;;;;5064533;28;20191;-30
2023/04/20 12:28:31;;;;;;;6.40;5.73;;;7.20;99.90;;;;;;5072964;28;20172;-29
2023/04/20 12:30:58;;;;;;;6.43;5.83;;;7.30;99.90;;;;;;5090973;28;20257;-29
2023/04/20 12:33:24;;;;;;;6.13;5.53;;;7.20;99.90;;;;;;5069257;28;20208;-30
2023/04/20 12:35:50;;;;;;;8.27;6.47;;;7.20;99.90;;;;;;5070731;28;20188;-31
2023/04/20 12:38:16;;;;;;;7.27;6.23;;;7.20;99.90;;;;;;5070840;28;20203;-31
2023/04/20 12:40:41;;;;;;;7.50;6.60;;;7.10;99.90;;;;;;5071464;28;20192;-31
2023/04/20 12:43:07;;;;;;;7.23;6.53;;;7.10;99.90;;;;;;5056131;28;20200;-31
2023/04/20 12:45:33;;;;;;;7.40;6.30;;;7.10;99.90;;;;;;5090783;28;20226;-31
2023/04/20 12:47:59;;;;;;;8.30;7.33;;;6.90;99.90;;;;;;5089939;28;20205;-30
2023/04/20 12:50:25;;;;;;;8.93;6.60;;;6.90;99.90;;;;;;5090261;28;20179;-31
2023/04/20 12:52:51;;;;;;;8.13;7.20;;;7.00;99.90;;;;;;5065639;28;20219;-31
2023/04/20 12:55:18;;;;;;;9.27;7.80;;;7.00;99.90;;;;;;5072176;28;20191;-30
2023/04/20 12:57:44;;;;;;;7.73;6.93;;;7.00;99.90;;;;;;5090528;28;20179;-30